sensor_id;sensor_type;location;lat;lon;timestamp;temperature;humidity
3860;DHT22;1945;52.036;8.614;2023-02-15T00:01:53;1.10;1.00
3860;DHT22;1945;52.036;8.614;2023-02-15T00:04:21;1.60;1.00
3860;DHT22;1945;52.036;8.614;2023-02-15T00:06:49;1.00;96.60
3860;DHT22;1945;52.036;8.614;2023-02-15T00:09:16;1.50;99.90
3860;DHT22;1945;52.036;8.614;2023-02-15T00:11:43;1.50;99.90
3860;DHT22;1945;52.036;8.614;2023-02-15T00:14:18;1.70;99.90
3860;DHT22;1945;52.036;8.614;2023-02-15T00:16:45;2.10;99.90
3860;DHT22;1945;52.036;8.614;2023-02-15T00:19:13;2.10;45.50
3860;DHT22;1945;52.036;8.614;2023-02-15T00:21:40;1.50;52.70
3860;DHT22;1945;52.036;8.614;2023-02-15T00:24:11;0.80;1.00
3860;DHT22;1945;52.036;8.614;2023-02-15T00:26:39;1.70;1.00
3860;DHT22;1945;52.036;8.614;2023-02-15T00:29:06;1.70;1.00
3860;DHT22;1945;52.036;8.614;2023-02-15T00:31:33;1.50;1.00
3860;DHT22;1945;52.036;8.614;2023-02-15T00:34:04;1.40;12.20
3860;DHT22;1945;52.036;8.614;2023-02-15T00:36:31;1.10;1.00
3860;DHT22;1945;52.036;8.614;2023-02-15T00:38:57;1.20;1.00
3860;DHT22;1945;52.036;8.614;2023-02-15T00:41:25;1.40;1.00
3860;DHT22;1945;52.036;8.614;2023-02-15T00:43:52;0.90;1.00
3860;DHT22;1945;52.036;8.614;2023-02-15T00:46:19;1.40;1.00
3860;DHT22;1945;52.036;8.614;2023-02-15T00:48:45;1.00;1.00
3860;DHT22;1945;52.036;8.614;2023-02-15T00:51:12;1.30;1.00
3860;DHT22;1945;52.036;8.614;2023-02-15T00:53:39;1.30;1.00
3860;DHT22;1945;52.036;8.614;2023-02-15T00:56:06;1.20;1.00
3860;DHT22;1945;52.036;8.614;2023-02-15T00:58:34;1.20;44.30
3860;DHT22;1945;52.036;8.614;2023-02-15T01:01:04;0.40;1.00
3860;DHT22;1945;52.036;8.614;2023-02-15T01:03:31;1.30;1.00
3860;DHT22;1945;52.036;8.614;2023-02-15T01:05:58;0.40;1.00
3860;DHT22;1945;52.036;8.614;2023-02-15T01:08:25;1.00;49.70
3860;DHT22;1945;52.036;8.614;2023-02-15T01:10:51;1.40;40.90
3860;DHT22;1945;52.036;8.614;2023-02-15T01:13:19;1.00;35.50
3860;DHT22;1945;52.036;8.614;2023-02-15T01:15:52;1.40;33.60
3860;DHT22;1945;52.036;8.614;2023-02-15T01:18:19;1.40;49.30
3860;DHT22;1945;52.036;8.614;2023-02-15T01:20:46;0.60;62.30
3860;DHT22;1945;52.036;8.614;2023-02-15T01:23:13;1.30;99.90
3860;DHT22;1945;52.036;8.614;2023-02-15T01:25:40;0.60;87.70
3860;DHT22;1945;52.036;8.614;2023-02-15T01:28:06;1.40;99.90
3860;DHT22;1945;52.036;8.614;2023-02-15T01:30:33;1.40;99.90
3860;DHT22;1945;52.036;8.614;2023-02-15T01:33:01;1.30;95.80
3860;DHT22;1945;52.036;8.614;2023-02-15T01:35:28;0.80;99.90
3860;DHT22;1945;52.036;8.614;2023-02-15T01:37:55;1.10;95.90
3860;DHT22;1945;52.036;8.614;2023-02-15T01:40:22;1.20;99.90
3860;DHT22;1945;52.036;8.614;2023-02-15T01:42:50;1.00;99.90
3860;DHT22;1945;52.036;8.614;2023-02-15T01:45:20;1.10;94.90
3860;DHT22;1945;52.036;8.614;2023-02-15T01:47:51;0.80;99.90
3860;DHT22;1945;52.036;8.614;2023-02-15T01:50:22;1.40;95.50
3860;DHT22;1945;52.036;8.614;2023-02-15T01:52:54;0.60;99.90
3860;DHT22;1945;52.036;8.614;2023-02-15T01:55:24;0.90;99.90
3860;DHT22;1945;52.036;8.614;2023-02-15T01:57:52;1.00;57.00
3860;DHT22;1945;52.036;8.614;2023-02-15T02:00:19;1.10;96.60
3860;DHT22;1945;52.036;8.614;2023-02-15T02:02:48;1.30;90.50
3860;DHT22;1945;52.036;8.614;2023-02-15T02:05:16;1.30;99.90
3860;DHT22;1945;52.036;8.614;2023-02-15T02:07:45;0.80;99.90
3860;DHT22;1945;52.036;8.614;2023-02-15T02:10:16;1.20;99.90
3860;DHT22;1945;52.036;8.614;2023-02-15T02:12:45;0.90;99.90
3860;DHT22;1945;52.036;8.614;2023-02-15T02:15:14;1.40;99.90
3860;DHT22;1945;52.036;8.614;2023-02-15T02:17:49;1.30;99.90
3860;DHT22;1945;52.036;8.614;2023-02-15T02:20:29;0.70;99.90
3860;DHT22;1945;52.036;8.614;2023-02-15T02:29:23;1.30;99.90
3860;DHT22;1945;52.036;8.614;2023-02-15T02:32:17;0.80;68.90
3860;DHT22;1945;52.036;8.614;2023-02-15T02:34:53;1.30;90.80
3860;DHT22;1945;52.036;8.614;2023-02-15T02:37:27;1.10;87.30
3860;DHT22;1945;52.036;8.614;2023-02-15T02:39:59;1.20;94.20
3860;DHT22;1945;52.036;8.614;2023-02-15T02:42:35;1.00;96.90
3860;DHT22;1945;52.036;8.614;2023-02-15T02:45:07;0.20;93.00
3860;DHT22;1945;52.036;8.614;2023-02-15T02:47:37;0.70;99.90
3860;DHT22;1945;52.036;8.614;2023-02-15T02:50:09;0.80;99.90
3860;DHT22;1945;52.036;8.614;2023-02-15T02:52:39;0.70;80.60
3860;DHT22;1945;52.036;8.614;2023-02-15T02:55:10;0.60;73.30
3860;DHT22;1945;52.036;8.614;2023-02-15T02:57:43;0.70;69.70
3860;DHT22;1945;52.036;8.614;2023-02-15T03:00:14;1.10;49.20
3860;DHT22;1945;52.036;8.614;2023-02-15T03:02:44;0.70;85.40
3860;DHT22;1945;52.036;8.614;2023-02-15T03:05:16;0.90;71.10
3860;DHT22;1945;52.036;8.614;2023-02-15T03:07:48;0.80;92.60
3860;DHT22;1945;52.036;8.614;2023-02-15T03:10:16;0.60;91.00
3860;DHT22;1945;52.036;8.614;2023-02-15T03:12:44;0.70;99.90
3860;DHT22;1945;52.036;8.614;2023-02-15T03:15:14;0.60;84.10
3860;DHT22;1945;52.036;8.614;2023-02-15T03:17:44;0.80;83.50
3860;DHT22;1945;52.036;8.614;2023-02-15T03:20:16;0.20;91.00
3860;DHT22;1945;52.036;8.614;2023-02-15T03:22:48;0.90;75.00
3860;DHT22;1945;52.036;8.614;2023-02-15T03:25:20;0.70;99.90
3860;DHT22;1945;52.036;8.614;2023-02-15T03:27:51;0.40;99.90
3860;DHT22;1945;52.036;8.614;2023-02-15T03:30:21;1.00;99.90
3860;DHT22;1945;52.036;8.614;2023-02-15T03:32:49;0.80;99.90
3860;DHT22;1945;52.036;8.614;2023-02-15T03:35:21;0.90;99.90
3860;DHT22;1945;52.036;8.614;2023-02-15T03:37:54;0.80;99.90
3860;DHT22;1945;52.036;8.614;2023-02-15T03:40:28;0.70;99.90
3860;DHT22;1945;52.036;8.614;2023-02-15T03:43:18;0.10;99.90
3860;DHT22;1945;52.036;8.614;2023-02-15T03:45:52;0.90;99.90
3860;DHT22;1945;52.036;8.614;2023-02-15T03:48:25;0.90;99.90
3860;DHT22;1945;52.036;8.614;2023-02-15T03:50:56;0.40;99.90
3860;DHT22;1945;52.036;8.614;2023-02-15T03:53:43;0.60;99.90
3860;DHT22;1945;52.036;8.614;2023-02-15T03:56:11;0.60;99.90
3860;DHT22;1945;52.036;8.614;2023-02-15T03:58:38;0.80;99.90
3860;DHT22;1945;52.036;8.614;2023-02-15T04:01:26;0.70;99.90
3860;DHT22;1945;52.036;8.614;2023-02-15T04:04:25;0.30;99.90
3860;DHT22;1945;52.036;8.614;2023-02-15T04:06:53;0.90;99.90
3860;DHT22;1945;52.036;8.614;2023-02-15T04:09:20;0.20;99.90
3860;DHT22;1945;52.036;8.614;2023-02-15T04:12:09;0.70;99.90
3860;DHT22;1945;52.036;8.614;2023-02-15T04:14:36;0.20;99.90
3860;DHT22;1945;52.036;8.614;2023-02-15T04:17:20;0.50;99.90
3860;DHT22;1945;52.036;8.614;2023-02-15T04:19:47;0.40;99.90
3860;DHT22;1945;52.036;8.614;2023-02-15T04:22:33;0.20;99.90
3860;DHT22;1945;52.036;8.614;2023-02-15T04:25:17;0.30;99.90
3860;DHT22;1945;52.036;8.614;2023-02-15T04:27:46;0.60;99.90
3860;DHT22;1945;52.036;8.614;2023-02-15T04:30:14;0.80;99.90
3860;DHT22;1945;52.036;8.614;2023-02-15T04:32:41;-0.40;99.90
3860;DHT22;1945;52.036;8.614;2023-02-15T04:35:08;0.30;99.90
3860;DHT22;1945;52.036;8.614;2023-02-15T04:37:37;0.60;99.90
3860;DHT22;1945;52.036;8.614;2023-02-15T04:40:05;0.20;99.90
3860;DHT22;1945;52.036;8.614;2023-02-15T04:42:33;0.10;99.90
3860;DHT22;1945;52.036;8.614;2023-02-15T04:44:59;0.30;99.90
3860;DHT22;1945;52.036;8.614;2023-02-15T04:47:26;0.40;99.90
3860;DHT22;1945;52.036;8.614;2023-02-15T04:49:53;0.70;99.90
3860;DHT22;1945;52.036;8.614;2023-02-15T04:52:19;0.50;99.90
3860;DHT22;1945;52.036;8.614;2023-02-15T04:54:47;-0.50;99.90
3860;DHT22;1945;52.036;8.614;2023-02-15T04:57:14;0.00;99.90
3860;DHT22;1945;52.036;8.614;2023-02-15T04:59:41;-0.50;99.90
3860;DHT22;1945;52.036;8.614;2023-02-15T05:02:07;-0.40;99.90
3860;DHT22;1945;52.036;8.614;2023-02-15T05:04:35;0.10;99.90
3860;DHT22;1945;52.036;8.614;2023-02-15T05:07:02;0.10;99.90
3860;DHT22;1945;52.036;8.614;2023-02-15T05:09:28;0.10;99.90
3860;DHT22;1945;52.036;8.614;2023-02-15T05:11:56;-0.40;99.90
3860;DHT22;1945;52.036;8.614;2023-02-15T05:14:23;-0.10;99.90
3860;DHT22;1945;52.036;8.614;2023-02-15T05:16:50;0.10;99.90
3860;DHT22;1945;52.036;8.614;2023-02-15T05:19:16;0.10;99.90
3860;DHT22;1945;52.036;8.614;2023-02-15T05:21:43;0.40;99.90
3860;DHT22;1945;52.036;8.614;2023-02-15T05:24:10;0.10;99.90
3860;DHT22;1945;52.036;8.614;2023-02-15T05:26:50;0.10;99.90
3860;DHT22;1945;52.036;8.614;2023-02-15T05:29:36;-0.60;99.90
3860;DHT22;1945;52.036;8.614;2023-02-15T05:32:03;0.40;99.90
3860;DHT22;1945;52.036;8.614;2023-02-15T05:34:30;0.40;99.90
3860;DHT22;1945;52.036;8.614;2023-02-15T05:36:56;-0.60;99.90
3860;DHT22;1945;52.036;8.614;2023-02-15T05:39:23;-0.60;99.90
3860;DHT22;1945;52.036;8.614;2023-02-15T05:41:50;0.40;99.90
3860;DHT22;1945;52.036;8.614;2023-02-15T05:44:17;0.00;99.90
3860;DHT22;1945;52.036;8.614;2023-02-15T05:46:45;-0.50;99.90
3860;DHT22;1945;52.036;8.614;2023-02-15T05:49:11;-0.20;99.90
3860;DHT22;1945;52.036;8.614;2023-02-15T05:51:38;0.10;99.90
3860;DHT22;1945;52.036;8.614;2023-02-15T05:54:05;-0.10;99.90
3860;DHT22;1945;52.036;8.614;2023-02-15T05:56:31;-0.20;99.90
3860;DHT22;1945;52.036;8.614;2023-02-15T05:58:58;0.20;99.90
3860;DHT22;1945;52.036;8.614;2023-02-15T06:01:25;0.30;99.90
3860;DHT22;1945;52.036;8.614;2023-02-15T06:03:53;-0.20;99.90
3860;DHT22;1945;52.036;8.614;2023-02-15T06:06:21;0.00;99.90
3860;DHT22;1945;52.036;8.614;2023-02-15T06:08:47;0.40;99.90
3860;DHT22;1945;52.036;8.614;2023-02-15T06:11:14;0.30;99.90
3860;DHT22;1945;52.036;8.614;2023-02-15T06:13:41;-0.50;99.90
3860;DHT22;1945;52.036;8.614;2023-02-15T06:16:07;0.60;99.90
3860;DHT22;1945;52.036;8.614;2023-02-15T06:18:34;0.30;99.90
3860;DHT22;1945;52.036;8.614;2023-02-15T06:21:02;0.40;99.90
3860;DHT22;1945;52.036;8.614;2023-02-15T06:23:29;-0.20;99.90
3860;DHT22;1945;52.036;8.614;2023-02-15T06:25:56;0.20;99.90
3860;DHT22;1945;52.036;8.614;2023-02-15T06:28:22;-0.20;99.90
3860;DHT22;1945;52.036;8.614;2023-02-15T06:30:50;0.30;99.90
3860;DHT22;1945;52.036;8.614;2023-02-15T06:33:17;-0.50;99.90
3860;DHT22;1945;52.036;8.614;2023-02-15T06:35:44;0.40;99.90
3860;DHT22;1945;52.036;8.614;2023-02-15T06:38:12;0.30;99.90
3860;DHT22;1945;52.036;8.614;2023-02-15T06:40:39;0.10;99.90
3860;DHT22;1945;52.036;8.614;2023-02-15T06:43:06;-0.20;99.90
3860;DHT22;1945;52.036;8.614;2023-02-15T06:45:32;0.20;99.90
3860;DHT22;1945;52.036;8.614;2023-02-15T06:47:59;0.30;99.90
3860;DHT22;1945;52.036;8.614;2023-02-15T06:50:26;-0.10;99.90
3860;DHT22;1945;52.036;8.614;2023-02-15T06:52:55;0.20;99.90
3860;DHT22;1945;52.036;8.614;2023-02-15T06:55:23;-0.10;99.90
3860;DHT22;1945;52.036;8.614;2023-02-15T06:57:50;-0.70;99.90
3860;DHT22;1945;52.036;8.614;2023-02-15T07:00:17;0.00;99.90
3860;DHT22;1945;52.036;8.614;2023-02-15T07:02:44;-0.20;99.90
3860;DHT22;1945;52.036;8.614;2023-02-15T07:05:11;0.20;99.90
3860;DHT22;1945;52.036;8.614;2023-02-15T07:07:38;0.20;99.90
3860;DHT22;1945;52.036;8.614;2023-02-15T07:10:06;0.00;99.90
3860;DHT22;1945;52.036;8.614;2023-02-15T07:12:34;0.10;99.90
3860;DHT22;1945;52.036;8.614;2023-02-15T07:15:10;0.40;99.90
3860;DHT22;1945;52.036;8.614;2023-02-15T07:17:37;-0.30;99.90
3860;DHT22;1945;52.036;8.614;2023-02-15T07:20:05;0.60;99.90
3860;DHT22;1945;52.036;8.614;2023-02-15T07:22:33;0.10;99.90
3860;DHT22;1945;52.036;8.614;2023-02-15T07:25:01;0.60;99.90
3860;DHT22;1945;52.036;8.614;2023-02-15T07:27:29;0.90;99.90
3860;DHT22;1945;52.036;8.614;2023-02-15T07:29:58;0.30;99.90
3860;DHT22;1945;52.036;8.614;2023-02-15T07:32:28;0.40;99.90
3860;DHT22;1945;52.036;8.614;2023-02-15T07:34:55;0.90;99.90
3860;DHT22;1945;52.036;8.614;2023-02-15T07:37:22;1.10;99.90
3860;DHT22;1945;52.036;8.614;2023-02-15T07:39:48;1.30;99.90
3860;DHT22;1945;52.036;8.614;2023-02-15T07:42:15;1.40;99.90
3860;DHT22;1945;52.036;8.614;2023-02-15T07:44:43;1.40;99.90
3860;DHT22;1945;52.036;8.614;2023-02-15T07:47:11;0.70;99.90
3860;DHT22;1945;52.036;8.614;2023-02-15T07:49:38;1.00;99.90
3860;DHT22;1945;52.036;8.614;2023-02-15T07:52:05;1.10;99.90
3860;DHT22;1945;52.036;8.614;2023-02-15T07:54:31;1.20;99.90
3860;DHT22;1945;52.036;8.614;2023-02-15T07:56:58;1.70;99.90
3860;DHT22;1945;52.036;8.614;2023-02-15T07:59:26;1.80;1.00
3860;DHT22;1945;52.036;8.614;2023-02-15T08:01:53;1.90;23.40
3860;DHT22;1945;52.036;8.614;2023-02-15T08:04:23;1.60;1.00
3860;DHT22;1945;52.036;8.614;2023-02-15T08:06:52;2.10;1.00
3860;DHT22;1945;52.036;8.614;2023-02-15T08:09:19;2.00;1.00
3860;DHT22;1945;52.036;8.614;2023-02-15T08:11:47;1.80;1.00
3860;DHT22;1945;52.036;8.614;2023-02-15T08:14:15;1.90;1.00
3860;DHT22;1945;52.036;8.614;2023-02-15T08:16:43;1.80;1.00
3860;DHT22;1945;52.036;8.614;2023-02-15T08:19:12;1.80;1.00
3860;DHT22;1945;52.036;8.614;2023-02-15T08:21:42;2.10;1.00
3860;DHT22;1945;52.036;8.614;2023-02-15T08:24:11;2.50;1.00
3860;DHT22;1945;52.036;8.614;2023-02-15T08:26:38;2.40;1.00
3860;DHT22;1945;52.036;8.614;2023-02-15T08:29:06;2.60;1.00
3860;DHT22;1945;52.036;8.614;2023-02-15T08:31:34;1.60;99.90
3860;DHT22;1945;52.036;8.614;2023-02-15T08:34:02;2.30;99.90
3860;DHT22;1945;52.036;8.614;2023-02-15T08:36:31;1.90;99.90
3860;DHT22;1945;52.036;8.614;2023-02-15T08:39:00;2.40;99.90
3860;DHT22;1945;52.036;8.614;2023-02-15T08:41:29;2.30;99.90
3860;DHT22;1945;52.036;8.614;2023-02-15T08:43:57;2.90;99.90
3860;DHT22;1945;52.036;8.614;2023-02-15T08:46:26;2.40;99.90
3860;DHT22;1945;52.036;8.614;2023-02-15T08:48:52;2.40;99.90
3860;DHT22;1945;52.036;8.614;2023-02-15T08:51:20;2.90;99.90
3860;DHT22;1945;52.036;8.614;2023-02-15T08:53:49;2.80;99.90
3860;DHT22;1945;52.036;8.614;2023-02-15T08:56:19;3.20;99.90
3860;DHT22;1945;52.036;8.614;2023-02-15T08:58:47;3.00;99.90
3860;DHT22;1945;52.036;8.614;2023-02-15T09:01:15;2.40;99.90
3860;DHT22;1945;52.036;8.614;2023-02-15T09:03:44;3.10;99.90
3860;DHT22;1945;52.036;8.614;2023-02-15T09:06:11;3.20;99.90
3860;DHT22;1945;52.036;8.614;2023-02-15T09:08:38;3.10;99.90
3860;DHT22;1945;52.036;8.614;2023-02-15T09:11:06;3.10;99.90
3860;DHT22;1945;52.036;8.614;2023-02-15T09:13:35;3.30;99.90
3860;DHT22;1945;52.036;8.614;2023-02-15T09:16:02;2.80;99.90
3860;DHT22;1945;52.036;8.614;2023-02-15T09:18:30;3.30;99.90
3860;DHT22;1945;52.036;8.614;2023-02-15T09:21:03;3.30;99.90
3860;DHT22;1945;52.036;8.614;2023-02-15T09:23:30;3.00;99.90
3860;DHT22;1945;52.036;8.614;2023-02-15T09:25:56;3.00;99.90
3860;DHT22;1945;52.036;8.614;2023-02-15T09:28:23;3.40;99.90
3860;DHT22;1945;52.036;8.614;2023-02-15T09:30:51;3.60;99.90
3860;DHT22;1945;52.036;8.614;2023-02-15T09:33:18;3.60;99.90
3860;DHT22;1945;52.036;8.614;2023-02-15T09:35:45;3.60;99.90
3860;DHT22;1945;52.036;8.614;2023-02-15T09:38:11;3.70;99.90
3860;DHT22;1945;52.036;8.614;2023-02-15T09:40:49;3.60;99.90
3860;DHT22;1945;52.036;8.614;2023-02-15T09:43:30;3.30;99.90
3860;DHT22;1945;52.036;8.614;2023-02-15T09:46:34;3.80;99.90
3860;DHT22;1945;52.036;8.614;2023-02-15T09:49:11;3.30;99.90
3860;DHT22;1945;52.036;8.614;2023-02-15T09:51:59;3.90;99.90
3860;DHT22;1945;52.036;8.614;2023-02-15T09:54:43;4.00;99.90
3860;DHT22;1945;52.036;8.614;2023-02-15T09:57:17;2.90;99.90
3860;DHT22;1945;52.036;8.614;2023-02-15T09:59:53;3.90;99.90
3860;DHT22;1945;52.036;8.614;2023-02-15T10:02:37;3.90;99.90
3860;DHT22;1945;52.036;8.614;2023-02-15T10:05:19;3.70;99.90
3860;DHT22;1945;52.036;8.614;2023-02-15T10:08:19;4.10;99.90
3860;DHT22;1945;52.036;8.614;2023-02-15T10:10:57;3.70;41.60
3860;DHT22;1945;52.036;8.614;2023-02-15T10:13:54;4.20;99.90
3860;DHT22;1945;52.036;8.614;2023-02-15T10:16:30;4.00;99.90
3860;DHT22;1945;52.036;8.614;2023-02-15T10:19:05;3.90;99.90
3860;DHT22;1945;52.036;8.614;2023-02-15T10:21:43;4.00;99.90
3860;DHT22;1945;52.036;8.614;2023-02-15T10:24:32;4.50;99.90
3860;DHT22;1945;52.036;8.614;2023-02-15T10:27:08;4.10;99.90
3860;DHT22;1945;52.036;8.614;2023-02-15T10:29:38;4.70;99.90
3860;DHT22;1945;52.036;8.614;2023-02-15T10:32:20;4.60;99.90
3860;DHT22;1945;52.036;8.614;2023-02-15T10:34:54;4.30;99.90
3860;DHT22;1945;52.036;8.614;2023-02-15T10:40:10;4.40;99.90
3860;DHT22;1945;52.036;8.614;2023-02-15T10:42:51;4.70;99.90
3860;DHT22;1945;52.036;8.614;2023-02-15T10:45:23;5.00;99.90
3860;DHT22;1945;52.036;8.614;2023-02-15T10:48:22;4.50;99.90
3860;DHT22;1945;52.036;8.614;2023-02-15T10:50:54;4.70;99.90
3860;DHT22;1945;52.036;8.614;2023-02-15T10:53:45;5.10;50.10
3860;DHT22;1945;52.036;8.614;2023-02-15T10:56:20;5.20;1.00
3860;DHT22;1945;52.036;8.614;2023-02-15T10:59:17;5.20;1.00
3860;DHT22;1945;52.036;8.614;2023-02-15T11:01:53;4.80;64.30
3860;DHT22;1945;52.036;8.614;2023-02-15T11:04:43;4.90;1.00
3860;DHT22;1945;52.036;8.614;2023-02-15T11:07:16;5.00;19.90
3860;DHT22;1945;52.036;8.614;2023-02-15T11:09:47;5.50;1.00
3860;DHT22;1945;52.036;8.614;2023-02-15T11:12:18;5.10;1.00
3860;DHT22;1945;52.036;8.614;2023-02-15T11:14:50;5.50;44.20
3860;DHT22;1945;52.036;8.614;2023-02-15T11:17:22;5.70;1.00
3860;DHT22;1945;52.036;8.614;2023-02-15T11:19:56;5.30;1.00
3860;DHT22;1945;52.036;8.614;2023-02-15T11:22:28;5.50;1.00
3860;DHT22;1945;52.036;8.614;2023-02-15T11:24:58;5.90;1.00
3860;DHT22;1945;52.036;8.614;2023-02-15T11:27:27;5.50;1.00
3860;DHT22;1945;52.036;8.614;2023-02-15T11:29:59;5.80;1.00
3860;DHT22;1945;52.036;8.614;2023-02-15T11:32:29;5.00;1.00
3860;DHT22;1945;52.036;8.614;2023-02-15T11:35:00;6.10;1.00
3860;DHT22;1945;52.036;8.614;2023-02-15T11:37:35;6.30;1.00
3860;DHT22;1945;52.036;8.614;2023-02-15T11:40:13;5.90;1.00
3860;DHT22;1945;52.036;8.614;2023-02-15T11:42:41;6.40;1.00
3860;DHT22;1945;52.036;8.614;2023-02-15T11:45:21;6.00;1.00
3860;DHT22;1945;52.036;8.614;2023-02-15T11:47:48;6.30;1.00
3860;DHT22;1945;52.036;8.614;2023-02-15T11:50:17;6.50;1.00
3860;DHT22;1945;52.036;8.614;2023-02-15T11:52:49;6.60;1.00
3860;DHT22;1945;52.036;8.614;2023-02-15T11:55:20;6.70;1.00
3860;DHT22;1945;52.036;8.614;2023-02-15T11:57:51;6.10;1.00
3860;DHT22;1945;52.036;8.614;2023-02-15T12:00:27;6.60;1.00
3860;DHT22;1945;52.036;8.614;2023-02-15T12:03:03;6.60;1.00
3860;DHT22;1945;52.036;8.614;2023-02-15T12:05:36;6.80;1.00
3860;DHT22;1945;52.036;8.614;2023-02-15T12:08:15;6.20;1.00
3860;DHT22;1945;52.036;8.614;2023-02-15T12:10:50;6.50;1.00
3860;DHT22;1945;52.036;8.614;2023-02-15T12:13:20;7.10;1.00
3860;DHT22;1945;52.036;8.614;2023-02-15T12:15:48;7.00;1.00
3860;DHT22;1945;52.036;8.614;2023-02-15T12:18:24;7.10;1.00
3860;DHT22;1945;52.036;8.614;2023-02-15T12:20:58;6.70;1.00
3860;DHT22;1945;52.036;8.614;2023-02-15T12:23:28;7.40;99.90
3860;DHT22;1945;52.036;8.614;2023-02-15T12:25:56;7.20;99.90
3860;DHT22;1945;52.036;8.614;2023-02-15T12:28:26;7.40;99.90
3860;DHT22;1945;52.036;8.614;2023-02-15T12:30:56;7.60;99.90
3860;DHT22;1945;52.036;8.614;2023-02-15T12:33:27;7.20;99.90
3860;DHT22;1945;52.036;8.614;2023-02-15T12:35:59;7.20;99.90
3860;DHT22;1945;52.036;8.614;2023-02-15T12:38:28;7.60;99.90
3860;DHT22;1945;52.036;8.614;2023-02-15T12:40:58;7.60;1.00
3860;DHT22;1945;52.036;8.614;2023-02-15T12:43:27;7.90;99.90
3860;DHT22;1945;52.036;8.614;2023-02-15T12:46:13;7.90;99.90
3860;DHT22;1945;52.036;8.614;2023-02-15T12:48:41;7.60;99.90
3860;DHT22;1945;52.036;8.614;2023-02-15T12:51:11;8.00;99.90
3860;DHT22;1945;52.036;8.614;2023-02-15T12:53:41;8.00;99.90
3860;DHT22;1945;52.036;8.614;2023-02-15T12:56:09;7.70;99.90
3860;DHT22;1945;52.036;8.614;2023-02-15T12:58:37;7.60;99.90
3860;DHT22;1945;52.036;8.614;2023-02-15T13:01:10;7.70;99.90
3860;DHT22;1945;52.036;8.614;2023-02-15T13:03:39;7.90;99.90
3860;DHT22;1945;52.036;8.614;2023-02-15T13:06:17;7.90;99.90
3860;DHT22;1945;52.036;8.614;2023-02-15T13:08:49;8.00;99.90
3860;DHT22;1945;52.036;8.614;2023-02-15T13:11:20;8.00;99.90
3860;DHT22;1945;52.036;8.614;2023-02-15T13:13:51;8.50;72.40
3860;DHT22;1945;52.036;8.614;2023-02-15T13:16:24;8.30;1.00
3860;DHT22;1945;52.036;8.614;2023-02-15T13:18:55;8.30;60.20
3860;DHT22;1945;52.036;8.614;2023-02-15T13:21:26;8.80;57.80
3860;DHT22;1945;52.036;8.614;2023-02-15T13:23:57;8.80;99.90
3860;DHT22;1945;52.036;8.614;2023-02-15T13:26:26;8.90;1.00
3860;DHT22;1945;52.036;8.614;2023-02-15T13:28:57;8.90;40.70
3860;DHT22;1945;52.036;8.614;2023-02-15T13:31:28;8.50;1.00
3860;DHT22;1945;52.036;8.614;2023-02-15T13:34:01;8.90;1.00
3860;DHT22;1945;52.036;8.614;2023-02-15T13:36:33;8.60;1.00
3860;DHT22;1945;52.036;8.614;2023-02-15T13:39:15;9.00;1.00
3860;DHT22;1945;52.036;8.614;2023-02-15T13:41:53;8.60;1.00
3860;DHT22;1945;52.036;8.614;2023-02-15T13:44:33;8.70;1.00
3860;DHT22;1945;52.036;8.614;2023-02-15T13:47:12;9.10;1.00
3860;DHT22;1945;52.036;8.614;2023-02-15T13:49:54;8.70;1.00
3860;DHT22;1945;52.036;8.614;2023-02-15T13:52:25;8.80;1.00
3860;DHT22;1945;52.036;8.614;2023-02-15T13:55:26;9.20;1.00
3860;DHT22;1945;52.036;8.614;2023-02-15T13:58:10;8.80;1.00
3860;DHT22;1945;52.036;8.614;2023-02-15T14:00:44;8.90;1.00
3860;DHT22;1945;52.036;8.614;2023-02-15T14:06:28;9.00;1.00
3860;DHT22;1945;52.036;8.614;2023-02-15T14:09:08;9.40;1.00
3860;DHT22;1945;52.036;8.614;2023-02-15T14:11:43;9.00;1.00
3860;DHT22;1945;52.036;8.614;2023-02-15T14:14:26;9.50;1.00
3860;DHT22;1945;52.036;8.614;2023-02-15T14:17:01;9.00;46.80
3860;DHT22;1945;52.036;8.614;2023-02-15T14:19:34;9.10;1.00
3860;DHT22;1945;52.036;8.614;2023-02-15T14:22:06;9.40;1.00
3860;DHT22;1945;52.036;8.614;2023-02-15T14:24:39;8.80;1.00
3860;DHT22;1945;52.036;8.614;2023-02-15T14:27:19;9.20;1.00
3860;DHT22;1945;52.036;8.614;2023-02-15T14:29:51;9.70;1.00
3860;DHT22;1945;52.036;8.614;2023-02-15T14:32:25;9.20;1.00
3860;DHT22;1945;52.036;8.614;2023-02-15T14:34:54;9.20;1.00
3860;DHT22;1945;52.036;8.614;2023-02-15T14:37:29;9.60;1.00
3860;DHT22;1945;52.036;8.614;2023-02-15T14:40:02;9.30;1.00
3860;DHT22;1945;52.036;8.614;2023-02-15T14:42:55;9.30;1.00
3860;DHT22;1945;52.036;8.614;2023-02-15T14:45:28;9.60;1.00
3860;DHT22;1945;52.036;8.614;2023-02-15T14:48:04;9.70;1.00
3860;DHT22;1945;52.036;8.614;2023-02-15T14:50:43;9.40;1.00
3860;DHT22;1945;52.036;8.614;2023-02-15T14:53:33;9.40;1.00
3860;DHT22;1945;52.036;8.614;2023-02-15T14:56:21;9.40;1.00
3860;DHT22;1945;52.036;8.614;2023-02-15T14:59:12;9.80;1.00
3860;DHT22;1945;52.036;8.614;2023-02-15T15:01:40;9.70;1.00
3860;DHT22;1945;52.036;8.614;2023-02-15T15:04:09;9.20;1.00
3860;DHT22;1945;52.036;8.614;2023-02-15T15:06:40;9.30;1.00
3860;DHT22;1945;52.036;8.614;2023-02-15T15:09:12;9.30;1.00
3860;DHT22;1945;52.036;8.614;2023-02-15T15:11:46;9.20;44.00
3860;DHT22;1945;52.036;8.614;2023-02-15T15:14:40;9.20;95.10
3860;DHT22;1945;52.036;8.614;2023-02-15T15:17:11;9.20;44.40
3860;DHT22;1945;52.036;8.614;2023-02-15T15:20:11;9.10;99.90
3860;DHT22;1945;52.036;8.614;2023-02-15T15:22:40;9.00;99.90
3860;DHT22;1945;52.036;8.614;2023-02-15T15:25:39;9.40;99.90
3860;DHT22;1945;52.036;8.614;2023-02-15T15:28:06;9.40;99.90
3860;DHT22;1945;52.036;8.614;2023-02-15T15:30:51;9.50;99.90
3860;DHT22;1945;52.036;8.614;2023-02-15T15:33:53;9.00;99.90
3860;DHT22;1945;52.036;8.614;2023-02-15T15:39:44;8.90;99.90
3860;DHT22;1945;52.036;8.614;2023-02-15T15:42:30;8.80;99.90
3860;DHT22;1945;52.036;8.614;2023-02-15T15:45:14;8.80;99.90
3860;DHT22;1945;52.036;8.614;2023-02-15T15:47:58;8.70;99.90
3860;DHT22;1945;52.036;8.614;2023-02-15T15:50:28;9.10;99.90
3860;DHT22;1945;52.036;8.614;2023-02-15T15:52:57;8.60;99.90
3860;DHT22;1945;52.036;8.614;2023-02-15T15:55:27;8.60;99.90
3860;DHT22;1945;52.036;8.614;2023-02-15T15:57:56;8.90;99.90
3860;DHT22;1945;52.036;8.614;2023-02-15T16:00:31;8.40;99.90
3860;DHT22;1945;52.036;8.614;2023-02-15T16:03:00;8.50;99.90
3860;DHT22;1945;52.036;8.614;2023-02-15T16:05:35;8.50;1.00
3860;DHT22;1945;52.036;8.614;2023-02-15T16:08:01;8.70;1.00
3860;DHT22;1945;52.036;8.614;2023-02-15T16:10:29;8.20;1.00
3860;DHT22;1945;52.036;8.614;2023-02-15T16:12:57;8.20;1.00
3860;DHT22;1945;52.036;8.614;2023-02-15T16:15:29;8.10;99.90
3860;DHT22;1945;52.036;8.614;2023-02-15T16:18:00;8.50;1.00
3860;DHT22;1945;52.036;8.614;2023-02-15T16:20:29;7.90;1.00
3860;DHT22;1945;52.036;8.614;2023-02-15T16:23:07;8.20;1.00
3860;DHT22;1945;52.036;8.614;2023-02-15T16:25:42;7.80;1.00
3860;DHT22;1945;52.036;8.614;2023-02-15T16:28:12;8.10;1.00
3860;DHT22;1945;52.036;8.614;2023-02-15T16:30:44;8.10;1.00
3860;DHT22;1945;52.036;8.614;2023-02-15T16:33:13;7.50;1.00
3860;DHT22;1945;52.036;8.614;2023-02-15T16:35:53;7.50;1.00
3860;DHT22;1945;52.036;8.614;2023-02-15T16:38:24;7.80;1.00
3860;DHT22;1945;52.036;8.614;2023-02-15T16:40:54;7.30;1.00
3860;DHT22;1945;52.036;8.614;2023-02-15T16:43:25;7.70;1.00
3860;DHT22;1945;52.036;8.614;2023-02-15T16:45:57;7.60;1.00
3860;DHT22;1945;52.036;8.614;2023-02-15T16:48:26;7.10;1.00
3860;DHT22;1945;52.036;8.614;2023-02-15T16:50:56;7.30;1.00
3860;DHT22;1945;52.036;8.614;2023-02-15T16:53:25;6.70;1.00
3860;DHT22;1945;52.036;8.614;2023-02-15T16:55:54;7.10;1.00
3860;DHT22;1945;52.036;8.614;2023-02-15T16:58:27;7.10;1.00
3860;DHT22;1945;52.036;8.614;2023-02-15T17:00:59;7.00;1.00
3860;DHT22;1945;52.036;8.614;2023-02-15T17:03:28;7.10;1.00
3860;DHT22;1945;52.036;8.614;2023-02-15T17:05:56;7.10;1.00
3860;DHT22;1945;52.036;8.614;2023-02-15T17:08:31;7.60;1.00